createdAt,value
2023-03-28T00:01:23.081Z,101943.25
2023-03-28T00:03:52.657Z,101942.94
2023-03-28T00:06:21.986Z,101949.22
2023-03-28T00:08:51.211Z,101960.47
2023-03-28T00:11:20.979Z,101958.91
2023-03-28T00:13:49.817Z,101962.31
2023-03-28T00:16:17.816Z,101959.31
2023-03-28T00:18:47.541Z,101967.66
2023-03-28T00:21:24.526Z,101973.69
2023-03-28T00:23:53.562Z,101978.66
2023-03-28T00:26:22.172Z,101985.19
2023-03-28T00:28:50.187Z,101989.31
2023-03-28T00:31:18.172Z,101991.75
2023-03-28T00:33:48.187Z,101989.84
2023-03-28T00:36:18.526Z,101996.75
2023-03-28T00:38:46.605Z,102001.72
2023-03-28T00:41:16.158Z,102004.66
2023-03-28T00:43:45.911Z,102001.00
2023-03-28T00:46:21.188Z,102004.66
2023-03-28T00:48:53.977Z,102016.41
2023-03-28T00:51:25.040Z,102018.41
2023-03-28T00:53:53.741Z,102022.44
2023-03-28T00:56:24.451Z,102023.41
2023-03-28T00:58:52.884Z,102019.94
2023-03-28T01:01:21.743Z,102019.22
2023-03-28T01:03:56.274Z,102014.28
2023-03-28T01:06:25.839Z,102020.91
2023-03-28T01:08:53.800Z,102022.81
2023-03-28T01:11:22.247Z,102038.69
2023-03-28T01:13:51.841Z,102035.13
2023-03-28T01:16:21.457Z,102037.66
2023-03-28T01:18:52.595Z,102041.03
2023-03-28T01:21:48.621Z,102049.69
2023-03-28T01:24:41.705Z,102056.34
2023-03-28T01:27:11.971Z,102040.94
2023-03-28T01:30:02.611Z,102057.69
2023-03-28T01:33:06.298Z,102056.09
2023-03-28T01:36:34.504Z,102052.09
2023-03-28T01:39:09.413Z,102060.63
2023-03-28T01:41:42.884Z,102046.69
2023-03-28T01:44:15.710Z,102057.31
2023-03-28T01:46:47.191Z,102059.00
2023-03-28T01:49:21.065Z,102063.41
2023-03-28T01:51:55.536Z,102059.78
2023-03-28T01:54:31.168Z,102064.97
2023-03-28T01:57:04.862Z,102066.84
2023-03-28T01:59:37.089Z,102054.66
2023-03-28T02:02:08.856Z,102058.78
2023-03-28T02:04:38.351Z,102066.78
2023-03-28T02:07:08.932Z,102063.59
2023-03-28T02:09:39.267Z,102060.03
2023-03-28T02:12:11.545Z,102061.06
2023-03-28T02:14:42.473Z,102069.06
2023-03-28T02:17:16.305Z,102063.44
2023-03-28T02:19:48.197Z,102068.25
2023-03-28T02:22:20.940Z,102064.34
2023-03-28T02:24:52.093Z,102074.34
2023-03-28T02:27:22.673Z,102076.91
2023-03-28T02:29:51.308Z,102070.84
2023-03-28T02:32:21.746Z,102077.34
2023-03-28T02:34:51.553Z,102078.69
2023-03-28T02:37:29.354Z,102075.06
2023-03-28T02:40:23.038Z,102078.56
2023-03-28T02:43:16.104Z,102076.56
2023-03-28T02:46:19.363Z,102073.22
2023-03-28T02:48:57.271Z,102067.66
2023-03-28T02:51:34.671Z,102078.44
2023-03-28T02:54:14.990Z,102072.69
2023-03-28T02:56:51.212Z,102074.94
2023-03-28T02:59:24.506Z,102075.66
2023-03-28T03:01:52.898Z,102088.03
2023-03-28T03:04:20.928Z,102081.81
2023-03-28T03:06:50.946Z,102088.63
2023-03-28T03:09:19.544Z,102089.00
2023-03-28T03:11:48.832Z,102083.38
2023-03-28T03:14:16.756Z,102090.66
2023-03-28T03:16:44.667Z,102090.84
2023-03-28T03:19:12.598Z,102092.91
2023-03-28T03:21:41.393Z,102086.25
2023-03-28T03:24:10.583Z,102088.25
2023-03-28T03:26:38.496Z,102086.94
2023-03-28T03:29:07.851Z,102082.47
2023-03-28T03:31:35.823Z,102080.78
2023-03-28T03:34:03.932Z,102081.75
2023-03-28T03:36:31.827Z,102085.28
2023-03-28T03:38:59.853Z,102090.94
2023-03-28T03:41:27.847Z,102095.75
2023-03-28T03:43:55.924Z,102087.22
2023-03-28T03:46:25.595Z,102087.94
2023-03-28T03:48:53.614Z,102100.25
2023-03-28T03:51:21.553Z,102096.03
2023-03-28T03:53:50.631Z,102087.69
2023-03-28T03:56:18.610Z,102099.63
2023-03-28T03:58:46.599Z,102101.00
2023-03-28T04:01:15.057Z,102109.13
2023-03-28T04:03:44.502Z,102104.81
2023-03-28T04:06:12.489Z,102106.63
2023-03-28T04:08:40.415Z,102117.84
2023-03-28T04:11:10.633Z,102113.38
2023-03-28T04:13:38.836Z,102119.47
2023-03-28T04:16:07.728Z,102118.75
2023-03-28T04:18:35.748Z,102123.28
2023-03-28T04:21:05.327Z,102122.94
2023-03-28T04:23:35.262Z,102105.97
2023-03-28T04:26:03.649Z,102114.53
2023-03-28T04:28:31.564Z,102118.50
2023-03-28T04:30:59.707Z,102120.59
2023-03-28T04:33:29.255Z,102117.41
2023-03-28T04:36:00.679Z,102124.28
2023-03-28T04:38:31.779Z,102120.13
2023-03-28T04:41:00.886Z,102118.50
2023-03-28T04:43:29.308Z,102126.53
2023-03-28T04:45:58.291Z,102132.03
2023-03-28T04:48:27.752Z,102127.53
2023-03-28T04:50:56.289Z,102134.16
2023-03-28T04:53:24.237Z,102137.41
2023-03-28T04:55:54.104Z,102137.19
2023-03-28T04:58:23.102Z,102145.28
2023-03-28T05:00:51.090Z,102148.88
2023-03-28T05:03:20.641Z,102147.03
2023-03-28T05:05:49.700Z,102150.94
2023-03-28T05:08:18.261Z,102157.72
2023-03-28T05:10:46.646Z,102159.41
2023-03-28T05:13:16.786Z,102162.00
2023-03-28T05:15:45.068Z,102166.66
2023-03-28T05:18:12.995Z,102171.22
2023-03-28T05:20:40.919Z,102170.53
2023-03-28T05:23:09.020Z,102181.97
2023-03-28T05:25:37.454Z,102180.75
2023-03-28T05:28:06.096Z,102182.78
2023-03-28T05:30:35.521Z,102186.09
2023-03-28T05:33:04.148Z,102186.88
2023-03-28T05:35:32.124Z,102187.44
2023-03-28T05:38:00.043Z,102186.53
2023-03-28T05:40:27.974Z,102188.81
2023-03-28T05:42:56.048Z,102197.34
2023-03-28T05:45:24.026Z,102193.81
2023-03-28T05:47:54.580Z,102200.00
2023-03-28T05:50:22.643Z,102199.66
2023-03-28T05:52:50.657Z,102197.50
2023-03-28T05:55:18.731Z,102197.72
2023-03-28T05:57:46.645Z,102193.66
2023-03-28T06:00:15.684Z,102195.50
2023-03-28T06:02:44.267Z,102195.44
2023-03-28T06:05:14.096Z,102193.78
2023-03-28T06:07:43.206Z,102196.91
2023-03-28T06:10:12.727Z,102206.47
2023-03-28T06:12:41.160Z,102200.09
2023-03-28T06:15:09.752Z,102200.81
2023-03-28T06:17:37.757Z,102204.13
2023-03-28T06:20:07.235Z,102207.59
2023-03-28T06:22:36.994Z,102202.91
2023-03-28T06:25:05.811Z,102221.53
2023-03-28T06:27:34.064Z,102216.56
2023-03-28T06:30:02.028Z,102227.41
2023-03-28T06:32:29.988Z,102223.59
2023-03-28T06:34:57.901Z,102226.59
2023-03-28T06:37:26.112Z,102229.19
2023-03-28T06:39:55.448Z,102241.41
2023-03-28T06:42:23.362Z,102241.66
2023-03-28T06:44:51.246Z,102237.94
2023-03-28T06:47:19.105Z,102248.91
2023-03-28T06:49:47.085Z,102247.59
2023-03-28T06:52:14.976Z,102258.28
2023-03-28T06:54:42.874Z,102264.16
2023-03-28T06:57:12.262Z,102265.16
2023-03-28T06:59:40.225Z,102280.09
2023-03-28T07:02:08.193Z,102273.03
2023-03-28T07:04:36.431Z,102279.81
2023-03-28T07:07:04.381Z,102289.06
2023-03-28T07:09:32.430Z,102290.63
2023-03-28T07:12:00.543Z,102295.97
2023-03-28T07:14:29.893Z,102290.63
2023-03-28T07:16:57.825Z,102297.53
2023-03-28T07:19:25.920Z,102302.50
2023-03-28T07:21:54.077Z,102312.78
2023-03-28T07:24:21.997Z,102306.97
2023-03-28T07:26:49.946Z,102311.03
2023-03-28T07:29:17.862Z,102310.91
2023-03-28T07:31:47.351Z,102313.19
2023-03-28T07:34:18.585Z,102320.16
2023-03-28T07:36:46.524Z,102319.84
2023-03-28T07:39:14.417Z,102317.53
2023-03-28T07:41:42.327Z,102318.06
2023-03-28T07:44:10.441Z,102319.75
2023-03-28T07:46:38.583Z,102317.81
2023-03-28T07:49:08.592Z,102315.50
2023-03-28T07:51:36.545Z,102321.16
2023-03-28T07:54:05.076Z,102321.09
2023-03-28T07:56:33.019Z,102324.34
2023-03-28T07:59:01.957Z,102332.03
2023-03-28T08:01:29.887Z,102328.78
2023-03-28T08:03:57.903Z,102330.47
2023-03-28T08:06:32.470Z,102333.66
2023-03-28T08:09:00.804Z,102331.78
2023-03-28T08:11:28.707Z,102333.88
2023-03-28T08:13:56.668Z,102332.31
2023-03-28T08:16:24.790Z,102331.91
2023-03-28T08:19:03.977Z,102325.66
2023-03-28T08:21:40.651Z,102331.56
2023-03-28T08:24:12.053Z,102324.00
2023-03-28T08:26:43.686Z,102319.47
2023-03-28T08:29:12.636Z,102315.78
2023-03-28T08:31:40.760Z,102309.13
2023-03-28T08:34:08.729Z,102306.47
2023-03-28T08:36:36.993Z,102301.34
2023-03-28T08:39:06.401Z,102287.78
2023-03-28T08:42:06.205Z,102303.06
2023-03-28T08:44:52.792Z,102298.81
2023-03-28T08:47:23.964Z,102295.28
2023-03-28T08:49:55.816Z,102294.09
2023-03-28T08:52:24.030Z,102295.38
2023-03-28T08:54:58.020Z,102298.44
2023-03-28T08:57:28.595Z,102287.47
2023-03-28T09:00:02.373Z,102282.00
2023-03-28T09:02:31.230Z,102286.91
2023-03-28T09:05:12.137Z,102275.50
2023-03-28T09:07:54.810Z,102283.38
2023-03-28T09:10:28.131Z,102285.03
2023-03-28T09:13:14.375Z,102279.78
2023-03-28T09:15:49.660Z,102281.53
2023-03-28T09:18:26.568Z,102281.19
2023-03-28T09:20:59.780Z,102278.06
2023-03-28T09:24:05.546Z,102273.69
2023-03-28T09:26:36.625Z,102276.13
2023-03-28T09:29:07.009Z,102277.94
2023-03-28T09:31:38.654Z,102277.72
2023-03-28T09:34:07.389Z,102280.94
2023-03-28T09:36:48.268Z,102284.56
2023-03-28T09:39:21.944Z,102272.91
2023-03-28T09:41:55.271Z,102270.81
2023-03-28T09:44:27.560Z,102262.72
2023-03-28T09:46:57.525Z,102268.81
2023-03-28T09:49:26.719Z,102263.97
2023-03-28T09:51:58.129Z,102271.19
2023-03-28T09:54:30.642Z,102267.88
2023-03-28T09:57:02.619Z,102265.00
2023-03-28T09:59:31.892Z,102256.84
2023-03-28T10:02:02.590Z,102268.88
2023-03-28T10:04:36.456Z,102267.81
2023-03-28T10:07:33.469Z,102268.09
2023-03-28T10:10:12.141Z,102263.16
2023-03-28T10:12:43.857Z,102272.78
2023-03-28T10:15:33.647Z,102269.25
2023-03-28T10:18:03.328Z,102270.97
2023-03-28T10:20:35.833Z,102275.88
2023-03-28T10:23:04.860Z,102288.25
2023-03-28T10:25:38.007Z,102294.28
2023-03-28T10:28:08.829Z,102292.69
2023-03-28T10:30:37.827Z,102303.03
2023-03-28T10:33:16.235Z,102300.59
2023-03-28T10:35:45.841Z,102301.38
2023-03-28T10:38:16.511Z,102312.53
2023-03-28T10:40:44.870Z,102315.25
2023-03-28T10:43:15.756Z,102319.16
2023-03-28T10:45:45.056Z,102321.03
2023-03-28T10:48:14.735Z,102330.06
2023-03-28T10:50:45.982Z,102328.72
2023-03-28T10:53:38.655Z,102334.44
2023-03-28T10:56:15.160Z,102331.75
2023-03-28T10:58:50.786Z,102325.13
2023-03-28T11:01:21.240Z,102324.97
2023-03-28T11:04:05.351Z,102321.91
2023-03-28T11:06:37.401Z,102323.41
2023-03-28T11:09:10.851Z,102314.19
2023-03-28T11:11:48.465Z,102317.56
2023-03-28T11:14:28.286Z,102315.53
2023-03-28T11:17:02.615Z,102319.25
2023-03-28T11:19:47.060Z,102312.47
2023-03-28T11:22:24.069Z,102308.03
2023-03-28T11:24:56.815Z,102310.06
2023-03-28T11:27:30.099Z,102305.38
2023-03-28T11:30:03.097Z,102303.75
2023-03-28T11:32:33.216Z,102306.44
2023-03-28T11:35:08.224Z,102309.72
2023-03-28T11:37:39.443Z,102312.03
2023-03-28T11:40:16.354Z,102306.22
2023-03-28T11:42:48.222Z,102303.56
2023-03-28T11:45:37.501Z,102285.47
2023-03-28T11:48:12.785Z,102283.88
2023-03-28T11:50:50.211Z,102277.28
2023-03-28T11:53:24.354Z,102272.09
2023-03-28T11:55:54.920Z,102269.91
2023-03-28T11:58:24.890Z,102281.50
2023-03-28T12:01:03.317Z,102282.25
2023-03-28T12:03:36.712Z,102265.63
2023-03-28T12:06:08.925Z,102261.94
2023-03-28T12:08:43.155Z,102263.63
2023-03-28T12:11:15.038Z,102259.28
2023-03-28T12:13:55.338Z,102259.84
2023-03-28T12:16:32.419Z,102254.03
2023-03-28T12:19:02.185Z,102251.91
2023-03-28T12:21:35.044Z,102248.91
2023-03-28T12:24:08.471Z,102246.38
2023-03-28T12:26:42.682Z,102239.31
2023-03-28T12:29:18.437Z,102234.06
2023-03-28T12:31:52.074Z,102237.34
2023-03-28T12:34:27.291Z,102230.72
2023-03-28T12:36:59.165Z,102223.94
2023-03-28T12:39:35.665Z,102229.00
2023-03-28T12:42:06.066Z,102220.84
2023-03-28T12:44:41.528Z,102217.47
2023-03-28T12:47:14.471Z,102224.41
2023-03-28T12:49:44.867Z,102227.53
2023-03-28T12:52:16.145Z,102222.44
2023-03-28T12:55:02.096Z,102219.59
2023-03-28T12:57:48.234Z,102216.59
2023-03-28T13:00:23.032Z,102212.22
2023-03-28T13:02:56.899Z,102196.94
2023-03-28T13:05:30.683Z,102200.91
2023-03-28T13:08:02.077Z,102195.34
2023-03-28T13:10:34.943Z,102192.75
2023-03-28T13:13:12.184Z,102186.78
2023-03-28T13:15:56.104Z,102192.38
2023-03-28T13:18:31.692Z,102184.16
2023-03-28T13:21:02.908Z,102183.94
2023-03-28T13:23:34.550Z,102178.06
2023-03-28T13:26:03.818Z,102177.41
2023-03-28T13:28:45.133Z,102177.78
2023-03-28T13:31:24.290Z,102169.66
2023-03-28T13:33:58.664Z,102168.06
2023-03-28T13:36:29.307Z,102163.63
2023-03-28T13:39:08.184Z,102153.75
2023-03-28T13:41:57.978Z,102152.44
2023-03-28T13:44:43.326Z,102143.63
2023-03-28T13:47:17.691Z,102133.63
2023-03-28T13:49:49.984Z,102129.06
2023-03-28T13:52:54.736Z,102128.69
2023-03-28T13:55:24.585Z,102129.16
2023-03-28T13:57:53.021Z,102126.06
2023-03-28T14:00:24.591Z,102120.28
2023-03-28T14:02:53.353Z,102121.34
2023-03-28T14:05:24.704Z,102112.75
2023-03-28T14:07:53.895Z,102100.84
2023-03-28T14:10:32.885Z,102098.81
2023-03-28T14:13:03.503Z,102095.44
2023-03-28T14:15:34.117Z,102092.63
2023-03-28T14:18:03.168Z,102094.19
2023-03-28T14:20:33.701Z,102093.03
2023-03-28T14:23:01.884Z,102089.06
2023-03-28T14:25:30.704Z,102077.88
2023-03-28T14:27:58.785Z,102074.66
2023-03-28T14:30:28.553Z,102073.50
2023-03-28T14:33:02.391Z,102072.63
2023-03-28T14:35:32.933Z,102075.13
2023-03-28T14:38:02.823Z,102076.19
2023-03-28T14:40:33.706Z,102077.66
2023-03-28T14:43:04.547Z,102070.28
2023-03-28T14:45:37.772Z,102071.03
2023-03-28T14:48:08.782Z,102069.47
2023-03-28T14:50:40.717Z,102065.19
2023-03-28T14:53:12.733Z,102060.03
2023-03-28T14:55:42.331Z,102054.44
2023-03-28T14:58:13.100Z,102055.72
2023-03-28T15:00:43.207Z,102029.03
2023-03-28T15:03:16.660Z,102043.34
2023-03-28T15:05:47.655Z,102041.41
2023-03-28T15:08:25.573Z,102042.66
2023-03-28T15:10:54.569Z,102039.06
2023-03-28T15:13:27.046Z,102043.03
2023-03-28T15:15:56.460Z,102037.47
2023-03-28T15:18:28.631Z,102041.78
2023-03-28T15:21:00.422Z,102028.53
2023-03-28T15:23:30.654Z,102026.41
2023-03-28T15:26:02.036Z,102026.59
2023-03-28T15:28:30.112Z,102015.91
2023-03-28T15:31:00.433Z,102017.84
2023-03-28T15:33:29.180Z,102015.16
2023-03-28T15:36:08.503Z,102012.19
2023-03-28T15:38:40.033Z,102010.50
2023-03-28T15:41:11.112Z,102010.47
2023-03-28T15:43:41.461Z,102008.97
2023-03-28T15:46:11.497Z,102002.84
2023-03-28T15:48:39.947Z,101995.91
2023-03-28T15:51:11.465Z,101998.78
2023-03-28T15:53:41.960Z,101999.72
2023-03-28T15:56:13.569Z,101989.69
2023-03-28T15:58:42.693Z,101981.63
2023-03-28T16:01:20.965Z,101976.13
2023-03-28T16:03:49.969Z,101973.13
2023-03-28T16:06:31.652Z,101968.22
2023-03-28T16:09:14.636Z,101970.13
2023-03-28T16:11:42.746Z,101979.13
2023-03-28T16:14:12.609Z,101969.72
2023-03-28T16:16:40.631Z,101966.94
2023-03-28T16:19:11.654Z,101972.91
2023-03-28T16:21:41.036Z,101972.56
2023-03-28T16:24:09.014Z,101973.31
2023-03-28T16:26:36.990Z,101978.06
2023-03-28T16:29:05.034Z,101974.25
2023-03-28T16:31:34.204Z,101984.94
2023-03-28T16:34:02.212Z,101977.97
2023-03-28T16:36:30.174Z,101980.47
2023-03-28T16:38:59.515Z,101977.88
2023-03-28T16:41:27.843Z,101982.97
2023-03-28T16:43:55.800Z,101974.13
2023-03-28T16:46:23.826Z,101978.50
2023-03-28T16:48:52.284Z,101982.50
2023-03-28T16:51:20.216Z,101989.56
2023-03-28T16:53:48.388Z,101988.84
2023-03-28T16:56:18.519Z,101990.94
2023-03-28T16:58:46.448Z,101992.88
2023-03-28T17:01:19.080Z,101999.81
2023-03-28T17:03:47.347Z,101989.63
2023-03-28T17:06:16.335Z,101994.34
2023-03-28T17:08:44.569Z,101982.31
2023-03-28T17:11:14.534Z,101986.03
2023-03-28T17:13:44.076Z,101982.03
2023-03-28T17:16:12.144Z,101976.69
2023-03-28T17:18:40.093Z,101972.31
2023-03-28T17:21:09.620Z,101977.28
2023-03-28T17:23:39.000Z,101971.16
2023-03-28T17:26:08.582Z,101968.78
2023-03-28T17:28:41.980Z,101965.25
2023-03-28T17:31:13.511Z,101968.88
2023-03-28T17:33:41.697Z,101965.09
2023-03-28T17:36:21.020Z,101963.66
2023-03-28T17:38:50.303Z,101969.66
2023-03-28T17:41:18.384Z,101962.69
2023-03-28T17:43:46.775Z,101969.69
2023-03-28T17:46:16.523Z,101973.31
2023-03-28T17:48:44.851Z,101970.88
2023-03-28T17:51:13.233Z,101958.44
2023-03-28T17:53:42.754Z,101956.69
2023-03-28T17:56:12.137Z,101955.75
2023-03-28T17:58:40.130Z,101951.84
2023-03-28T18:01:10.519Z,101948.69
2023-03-28T18:03:40.166Z,101949.16
2023-03-28T18:06:09.373Z,101950.38
2023-03-28T18:08:37.584Z,101943.31
2023-03-28T18:11:07.540Z,101937.75
2023-03-28T18:13:36.606Z,101934.53
2023-03-28T18:16:05.506Z,101929.47
2023-03-28T18:18:34.062Z,101926.16
2023-03-28T18:21:04.370Z,101921.88
2023-03-28T18:23:32.536Z,101921.38
2023-03-28T18:26:00.684Z,101923.06
2023-03-28T18:28:28.803Z,101918.47
2023-03-28T18:30:58.107Z,101914.34
2023-03-28T18:33:26.120Z,101916.50
2023-03-28T18:35:54.036Z,101915.47
2023-03-28T18:38:23.394Z,101913.56
2023-03-28T18:40:53.062Z,101913.75
2023-03-28T18:43:21.476Z,101927.47
2023-03-28T18:45:54.657Z,101910.28
2023-03-28T18:48:22.844Z,101911.06
2023-03-28T18:50:51.006Z,101907.03
2023-03-28T18:53:18.889Z,101900.19
2023-03-28T18:55:48.178Z,101902.66
2023-03-28T18:58:16.213Z,101899.38
2023-03-28T19:00:44.267Z,101900.94
2023-03-28T19:03:17.639Z,101899.69
2023-03-28T19:05:45.757Z,101902.22
2023-03-28T19:08:13.683Z,101883.31
2023-03-28T19:10:47.881Z,101886.19
2023-03-28T19:13:16.128Z,101883.72
2023-03-28T19:15:44.246Z,101893.22
2023-03-28T19:18:12.258Z,101887.22
2023-03-28T19:20:40.343Z,101877.09
2023-03-28T19:23:08.777Z,101869.81
2023-03-28T19:25:36.707Z,101869.63
2023-03-28T19:28:05.970Z,101865.84
2023-03-28T19:30:34.055Z,101864.25
2023-03-28T19:33:02.486Z,101864.84
2023-03-28T19:35:31.328Z,101864.34
2023-03-28T19:37:59.347Z,101862.19
2023-03-28T19:40:27.220Z,101853.50
2023-03-28T19:42:56.325Z,101856.03
2023-03-28T19:45:25.828Z,101854.09
2023-03-28T19:47:53.816Z,101857.84
2023-03-28T19:50:21.804Z,101848.47
2023-03-28T19:52:50.419Z,101848.06
2023-03-28T19:55:18.383Z,101852.94
2023-03-28T19:57:46.335Z,101847.63
2023-03-28T20:00:14.960Z,101846.22
2023-03-28T20:02:44.352Z,101846.59
2023-03-28T20:05:12.291Z,101838.34
2023-03-28T20:07:42.710Z,101834.94
2023-03-28T20:10:11.480Z,101836.28
2023-03-28T20:12:41.029Z,101834.53
2023-03-28T20:15:10.453Z,101827.16
2023-03-28T20:17:38.519Z,101834.78
2023-03-28T20:20:10.541Z,101836.09
2023-03-28T20:22:38.452Z,101830.97
2023-03-28T20:25:07.313Z,101825.81
2023-03-28T20:27:37.286Z,101823.13
2023-03-28T20:30:06.804Z,101822.16
2023-03-28T20:32:35.111Z,101807.78
2023-03-28T20:35:03.080Z,101811.41
2023-03-28T20:37:32.433Z,101808.81
2023-03-28T20:40:05.294Z,101803.22
2023-03-28T20:42:34.016Z,101790.94
2023-03-28T20:45:01.920Z,101793.41
2023-03-28T20:47:30.394Z,101788.22
2023-03-28T20:50:05.558Z,101788.22
2023-03-28T20:52:38.352Z,101787.34
2023-03-28T20:55:08.043Z,101785.44
2023-03-28T20:57:41.286Z,101785.66
2023-03-28T21:00:14.014Z,101785.97
2023-03-28T21:02:42.574Z,101774.28
2023-03-28T21:05:12.479Z,101772.44
2023-03-28T21:07:44.024Z,101771.66
2023-03-28T21:10:12.287Z,101759.25
2023-03-28T21:12:40.186Z,101766.13
2023-03-28T21:15:09.876Z,101769.59
2023-03-28T21:17:38.000Z,101755.47
2023-03-28T21:20:08.299Z,101766.66
2023-03-28T21:22:36.505Z,101763.75
2023-03-28T21:25:06.526Z,101769.13
2023-03-28T21:27:36.880Z,101766.28
2023-03-28T21:30:11.675Z,101761.63
2023-03-28T21:32:39.757Z,101768.53
2023-03-28T21:35:08.502Z,101769.59
2023-03-28T21:37:36.595Z,101774.34
2023-03-28T21:40:08.633Z,101774.78
2023-03-28T21:42:36.551Z,101776.25
2023-03-28T21:45:04.816Z,101770.56
2023-03-28T21:47:32.734Z,101779.28
2023-03-28T21:50:00.798Z,101782.75
2023-03-28T21:52:28.819Z,101779.13
2023-03-28T21:54:56.734Z,101771.31
2023-03-28T21:57:26.377Z,101775.06
2023-03-28T21:59:54.460Z,101781.91
2023-03-28T22:02:22.425Z,101773.56
2023-03-28T22:04:50.446Z,101773.56
2023-03-28T22:07:18.374Z,101769.78
2023-03-28T22:09:51.062Z,101776.34
2023-03-28T22:12:22.829Z,101772.94
2023-03-28T22:14:52.250Z,101765.19
2023-03-28T22:17:20.172Z,101768.72
2023-03-28T22:19:48.342Z,101759.97
2023-03-28T22:22:17.945Z,101756.31
2023-03-28T22:24:46.183Z,101754.94
2023-03-28T22:27:14.194Z,101751.63
2023-03-28T22:29:42.199Z,101753.63
2023-03-28T22:32:11.574Z,101750.16
2023-03-28T22:34:39.520Z,101743.72
2023-03-28T22:37:07.395Z,101743.28
2023-03-28T22:39:35.360Z,101734.13
2023-03-28T22:42:03.553Z,101734.19
2023-03-28T22:44:31.439Z,101733.41
2023-03-28T22:47:02.286Z,101727.00
2023-03-28T22:49:32.197Z,101729.31
2023-03-28T22:52:01.923Z,101719.25
2023-03-28T22:54:30.480Z,101713.03
2023-03-28T22:56:59.003Z,101715.66
2023-03-28T22:59:27.501Z,101701.19
2023-03-28T23:01:56.377Z,101706.88
2023-03-28T23:04:24.729Z,101707.19
2023-03-28T23:06:54.109Z,101712.41
2023-03-28T23:09:22.420Z,101707.81
2023-03-28T23:11:50.429Z,101716.91
2023-03-28T23:14:18.342Z,101708.06
2023-03-28T23:16:46.287Z,101701.66
2023-03-28T23:19:14.326Z,101701.34
2023-03-28T23:21:42.978Z,101691.88
2023-03-28T23:24:12.321Z,101683.50
2023-03-28T23:26:40.244Z,101682.53
2023-03-28T23:29:08.154Z,101683.41
2023-03-28T23:31:36.051Z,101680.88
2023-03-28T23:34:04.012Z,101683.66
2023-03-28T23:36:31.951Z,101682.69
2023-03-28T23:38:59.928Z,101679.16
2023-03-28T23:41:29.224Z,101672.66
2023-03-28T23:43:57.132Z,101671.00
2023-03-28T23:46:25.113Z,101665.16
2023-03-28T23:48:53.097Z,101659.63
2023-03-28T23:51:21.139Z,101650.84
2023-03-28T23:53:49.028Z,101652.59
2023-03-28T23:56:16.917Z,101641.91
2023-03-28T23:58:46.399Z,101633.00
